Time;durP1;ratioP1;P1;durP2;ratioP2;P2;SDS_P1;SDS_P2;PMS_P1;PMS_P2;Temp;Humidity;BMP_temperature;BMP_pressure;BME280_temperature;BME280_humidity;BME280_pressure;Samples;Min_cycle;Max_cycle;Signal;HPM_P1;HPM_P2
2021/03/09 00:00:07;;;;;;;15.67;14.13;;;-0.50;30.60;;;;;;5053060;28;20254;-72
2021/03/09 00:02:33;;;;;;;15.45;14.00;;;-0.50;30.80;;;;;;5053493;28;20202;-72
2021/03/09 00:04:59;;;;;;;20.57;16.37;;;-0.50;30.80;;;;;;5053656;28;20224;-72
2021/03/09 00:07:24;;;;;;;16.30;13.90;;;-0.60;30.70;;;;;;5053451;28;20210;-72
2021/03/09 00:09:50;;;;;;;17.80;13.90;;;-0.60;30.50;;;;;;5051637;28;20175;-72
2021/03/09 00:12:16;;;;;;;17.30;14.07;;;-0.60;52.20;;;;;;5053424;28;20654;-72
2021/03/09 00:14:41;;;;;;;15.13;13.67;;;-0.60;47.10;;;;;;5053236;28;20273;-72
2021/03/09 00:17:07;;;;;;;16.53;13.53;;;-0.50;30.50;;;;;;5053398;28;20409;-72
2021/03/09 00:19:32;;;;;;;17.90;13.97;;;-0.50;30.10;;;;;;5052819;28;20186;-71
2021/03/09 00:21:58;;;;;;;18.30;14.90;;;-0.50;30.10;;;;;;5052020;28;20175;-72
2021/03/09 00:24:24;;;;;;;14.63;12.43;;;-0.50;30.00;;;;;;5053661;28;20225;-72
2021/03/09 00:26:49;;;;;;;15.20;11.30;;;-0.50;30.20;;;;;;5052304;28;20209;-72
2021/03/09 00:29:15;;;;;;;15.33;10.97;;;-0.60;30.30;;;;;;5052475;28;20179;-72
2021/03/09 00:31:40;;;;;;;12.27;10.87;;;-0.70;31.20;;;;;;5053180;28;20229;-72
2021/03/09 00:34:06;;;;;;;15.70;11.87;;;-0.70;31.10;;;;;;5052990;28;20201;-72
2021/03/09 00:36:31;;;;;;;14.00;12.60;;;-0.80;31.30;;;;;;5052914;28;20171;-72
2021/03/09 00:38:57;;;;;;;13.37;12.17;;;-0.80;31.50;;;;;;5050840;28;20201;-72
2021/03/09 00:41:22;;;;;;;12.60;11.30;;;-0.80;31.60;;;;;;5052823;28;20782;-72
2021/03/09 00:43:48;;;;;;;16.53;13.17;;;-0.90;31.80;;;;;;5052633;28;20209;-72
2021/03/09 00:46:13;;;;;;;14.40;12.97;;;-0.90;32.20;;;;;;5052943;28;20171;-72
2021/03/09 00:48:40;;;;;;;13.93;11.40;;;-0.90;32.50;;;;;;5051729;28;20281;-72
2021/03/09 00:51:06;;;;;;;13.57;10.77;;;-0.90;32.30;;;;;;5052140;28;20201;-71
2021/03/09 00:53:32;;;;;;;13.77;10.85;;;-0.90;32.80;;;;;;5052604;28;20273;-72
2021/03/09 00:55:57;;;;;;;12.53;10.80;;;-0.90;32.80;;;;;;5052548;28;20258;-72
2021/03/09 00:58:23;;;;;;;12.60;10.03;;;-1.00;33.10;;;;;;5051206;28;20231;-71
2021/03/09 01:00:49;;;;;;;16.70;12.00;;;-1.10;33.00;;;;;;5067136;28;20178;-72
2021/03/09 01:03:15;;;;;;;12.50;11.15;;;-1.10;33.00;;;;;;5052526;28;20202;-71
2021/03/09 01:05:40;;;;;;;14.00;12.30;;;-1.10;34.00;;;;;;5052480;28;20179;-72
2021/03/09 01:08:06;;;;;;;14.37;11.90;;;-1.10;33.90;;;;;;5052415;28;20567;-72
2021/03/09 01:10:32;;;;;;;14.30;11.17;;;-1.10;34.20;;;;;;5051655;28;20190;-72
2021/03/09 01:12:58;;;;;;;16.48;11.32;;;-1.10;34.40;;;;;;5052118;28;20694;-72
2021/03/09 01:15:23;;;;;;;16.67;13.03;;;-1.10;33.80;;;;;;5052281;28;20199;-71
2021/03/09 01:17:49;;;;;;;13.60;12.20;;;-1.10;33.70;;;;;;5052229;28;20175;-72
2021/03/09 01:20:15;;;;;;;15.17;12.30;;;-1.10;33.90;;;;;;5051434;28;20174;-72
2021/03/09 01:22:41;;;;;;;12.68;11.68;;;-1.10;33.60;;;;;;5050844;28;20249;-72
2021/03/09 01:25:07;;;;;;;16.57;13.57;;;-1.10;33.80;;;;;;5052010;28;20268;-72
2021/03/09 01:27:33;;;;;;;12.50;11.20;;;-1.20;33.50;;;;;;5051857;28;20210;-72
2021/03/09 01:29:59;;;;;;;14.87;13.43;;;-1.20;33.50;;;;;;5050107;28;20178;-71
2021/03/09 01:32:25;;;;;;;13.40;12.00;;;-1.20;33.10;;;;;;5051965;28;20405;-72
2021/03/09 01:34:51;;;;;;;13.27;11.25;;;-1.20;33.00;;;;;;5067168;28;20662;-72
2021/03/09 01:37:16;;;;;;;13.30;12.10;;;-1.20;33.00;;;;;;5050539;28;20265;-72
2021/03/09 01:39:42;;;;;;;11.80;10.50;;;-1.20;33.00;;;;;;5051004;28;20186;-71
2021/03/09 01:42:08;;;;;;;12.80;11.50;;;-1.20;33.80;;;;;;5051550;28;20210;-72
2021/03/09 01:44:34;;;;;;;14.17;11.87;;;-1.20;33.40;;;;;;5051612;28;20229;-71
2021/03/09 01:47:01;;;;;;;20.63;11.25;;;-1.20;33.00;;;;;;5051708;28;20934;-72
2021/03/09 01:49:33;;;;;;;14.60;11.68;;;-1.30;33.70;;;;;;5051206;28;20166;-72
2021/03/09 01:51:59;;;;;;;12.32;11.10;;;-1.30;32.90;;;;;;5051979;28;20178;-71
2021/03/09 01:54:26;;;;;;;14.53;11.33;;;-1.30;33.00;;;;;;5051593;28;20201;-71
2021/03/09 01:56:52;;;;;;;16.83;11.43;;;-1.30;33.60;;;;;;5051492;28;20766;-71
2021/03/09 01:59:18;;;;;;;11.87;10.40;;;-1.30;33.30;;;;;;5050675;28;20257;-70
2021/03/09 02:01:44;;;;;;;11.80;10.70;;;-1.40;33.30;;;;;;5051303;28;20171;-70
2021/03/09 02:04:11;;;;;;;12.70;10.87;;;-1.40;33.60;;;;;;5051336;28;20333;-71
2021/03/09 02:06:37;;;;;;;13.55;11.88;;;-1.40;33.80;;;;;;5051401;28;20417;-70
2021/03/09 02:09:04;;;;;;;13.23;11.70;;;-1.40;34.00;;;;;;5050537;28;20272;-70
2021/03/09 02:11:33;;;;;;;15.95;12.50;;;-1.40;34.30;;;;;;5051220;28;20266;-71
2021/03/09 02:14:16;;;;;;;15.55;13.10;;;-1.40;34.30;;;;;;5051156;28;20202;-71
2021/03/09 02:17:07;;;;;;;13.48;12.13;;;-1.40;34.20;;;;;;5051252;28;20253;-71
2021/03/09 02:20:00;;;;;;;12.60;10.80;;;-1.40;34.20;;;;;;5050623;28;20610;-71
2021/03/09 02:22:47;;;;;;;16.05;12.68;;;-1.40;34.10;;;;;;5051087;28;20257;-70
2021/03/09 02:25:20;;;;;;;14.15;10.95;;;-1.40;34.10;;;;;;5049862;28;20190;-71
2021/03/09 02:28:13;;;;;;;13.23;11.82;;;-1.40;34.10;;;;;;5050966;28;20671;-71
2021/03/09 02:30:44;;;;;;;14.63;12.77;;;-1.50;33.40;;;;;;5050601;28;20202;-71
2021/03/09 02:33:16;;;;;;;14.82;13.32;;;-1.50;33.70;;;;;;5050876;28;20190;-70
2021/03/09 02:35:55;;;;;;;16.23;11.45;;;-1.60;33.80;;;;;;5050960;28;20200;-71
2021/03/09 02:38:23;;;;;;;14.55;12.93;;;-1.70;34.30;;;;;;5050622;28;20551;-70
2021/03/09 02:40:57;;;;;;;13.38;11.98;;;-1.60;34.60;;;;;;5050067;28;20181;-70
2021/03/09 02:43:26;;;;;;;22.17;13.15;;;-1.60;34.60;;;;;;5050988;28;20214;-71
2021/03/09 02:45:52;;;;;;;15.52;12.05;;;-1.60;34.50;;;;;;5050637;28;20179;-71
2021/03/09 02:48:23;;;;;;;24.67;14.85;;;-1.60;34.70;;;;;;5050711;28;20301;-71
2021/03/09 02:50:52;;;;;;;16.70;12.80;;;-1.60;34.40;;;;;;5050166;28;20213;-70
2021/03/09 02:53:18;;;;;;;14.48;12.98;;;-1.60;34.40;;;;;;5050476;28;20189;-71
2021/03/09 02:55:47;;;;;;;12.43;11.30;;;-1.70;34.40;;;;;;5050664;28;20170;-71
2021/03/09 02:58:18;;;;;;;13.68;12.38;;;-1.70;34.60;;;;;;5050684;28;20519;-71
2021/03/09 03:00:49;;;;;;;13.40;10.80;;;-1.70;34.40;;;;;;5050098;28;20662;-70
2021/03/09 03:03:15;;;;;;;13.60;11.90;;;-1.80;34.80;;;;;;5050642;28;20293;-71
2021/03/09 03:05:42;;;;;;;16.00;12.50;;;-1.70;35.10;;;;;;5050564;28;20260;-71
2021/03/09 03:08:09;;;;;;;12.25;10.80;;;-1.70;34.90;;;;;;5050579;28;20672;-71
2021/03/09 03:10:37;;;;;;;14.13;12.20;;;-1.70;35.20;;;;;;5049929;28;20568;-71
2021/03/09 03:13:07;;;;;;;12.70;10.90;;;-1.70;35.00;;;;;;5054697;28;20194;-70
2021/03/09 03:15:35;;;;;;;12.98;11.63;;;-1.80;35.20;;;;;;5054600;28;20163;-71
2021/03/09 03:18:05;;;;;;;15.40;12.50;;;-1.80;35.10;;;;;;5054780;28;20174;-71
2021/03/09 03:20:31;;;;;;;18.95;10.60;;;-1.80;35.00;;;;;;5054375;28;20213;-71
2021/03/09 03:22:58;;;;;;;11.70;10.50;;;-1.90;35.10;;;;;;5054365;28;20620;-70
2021/03/09 03:25:25;;;;;;;11.80;10.07;;;-1.90;35.00;;;;;;5054460;28;20198;-71
2021/03/09 03:27:52;;;;;;;11.07;9.95;;;-1.90;52.30;;;;;;5054139;28;20541;-70
2021/03/09 03:30:18;;;;;;;12.90;11.20;;;-1.90;35.20;;;;;;5052345;28;20171;-71
2021/03/09 03:32:46;;;;;;;12.73;10.35;;;-2.00;35.10;;;;;;5069819;28;20706;-71
2021/03/09 03:35:13;;;;;;;16.67;10.93;;;-2.00;35.20;;;;;;5054091;28;20223;-72
2021/03/09 03:37:40;;;;;;;13.75;11.60;;;-2.10;35.10;;;;;;5053999;28;20228;-70
2021/03/09 03:40:09;;;;;;;13.57;11.73;;;-2.10;35.30;;;;;;5054246;28;20183;-71
2021/03/09 03:42:36;;;;;;;11.38;10.18;;;-2.10;35.50;;;;;;5053860;28;20266;-70
2021/03/09 03:45:03;;;;;;;14.07;10.98;;;-2.10;35.60;;;;;;5054133;28;20715;-71
2021/03/09 03:47:28;;;;;;;12.02;10.77;;;-2.10;36.10;;;;;;5054349;28;20686;-71
2021/03/09 03:49:54;;;;;;;13.93;10.63;;;-2.10;36.40;;;;;;5053376;28;20175;-72
2021/03/09 03:52:30;;;;;;;10.40;9.37;;;-2.10;36.10;;;;;;5054327;28;20174;-71
2021/03/09 03:55:12;;;;;;;14.13;12.50;;;-2.10;36.30;;;;;;5052809;28;20213;-71
2021/03/09 03:57:48;;;;;;;15.27;11.10;;;-2.20;36.10;;;;;;5053925;28;20270;-70
2021/03/09 04:00:20;;;;;;;11.55;10.45;;;-2.30;36.70;;;;;;5052293;28;20178;-72
2021/03/09 04:02:46;;;;;;;16.65;11.90;;;;;;;;;;5054054;28;20713;-70
2021/03/09 04:05:13;;;;;;;14.98;12.30;;;;;;;;;;5054347;28;20179;-71
2021/03/09 04:07:40;;;;;;;13.85;11.40;;;-1.60;51.70;;;;;;5054010;28;20198;-71
2021/03/09 04:10:06;;;;;;;14.68;11.63;;;-2.30;36.90;;;;;;5053574;28;20171;-70
2021/03/09 04:12:34;;;;;;;18.45;12.40;;;-2.30;36.90;;;;;;5054053;28;20178;-70
2021/03/09 04:15:01;;;;;;;11.05;9.75;;;-2.30;36.60;;;;;;5053796;28;20171;-71
2021/03/09 04:17:27;;;;;;;12.70;10.80;;;-2.20;36.80;;;;;;5053678;28;20191;-72
2021/03/09 04:19:55;;;;;;;18.92;10.40;;;-2.20;36.20;;;;;;5053240;28;20189;-71
2021/03/09 04:22:23;;;;;;;12.30;11.05;;;-2.20;35.90;;;;;;5052823;28;20535;-70
2021/03/09 04:24:49;;;;;;;11.02;9.93;;;-2.30;36.10;;;;;;5053357;28;20310;-71
2021/03/09 04:27:22;;;;;;;15.88;10.73;;;;;;;;;;5053406;28;20577;-69
2021/03/09 04:29:52;;;;;;;15.90;12.27;;;;;;;;;;5051209;28;20174;-70
2021/03/09 04:32:18;;;;;;;18.33;12.25;;;;;;;;;;5051410;28;20174;-69
2021/03/09 04:34:45;;;;;;;13.38;10.60;;;-2.50;66.40;;;;;;5052859;28;20248;-70
2021/03/09 04:37:12;;;;;;;17.23;11.90;;;-2.50;49.90;;;;;;5052845;28;20189;-70
2021/03/09 04:39:38;;;;;;;13.80;10.70;;;-2.40;49.60;;;;;;5052181;28;20262;-70
2021/03/09 04:42:04;;;;;;;16.02;12.32;;;-2.40;49.70;;;;;;5052891;28;20166;-72
2021/03/09 04:44:30;;;;;;;12.30;11.10;;;-2.40;49.70;;;;;;5053015;28;20237;-72
2021/03/09 04:46:56;;;;;;;15.10;11.33;;;-2.30;49.80;;;;;;5053091;28;20197;-71
2021/03/09 04:49:21;;;;;;;14.07;10.80;;;-2.40;37.50;;;;;;5052237;28;20186;-74
2021/03/09 04:51:48;;;;;;;14.20;10.70;;;-2.40;37.50;;;;;;5052722;28;20522;-71
2021/03/09 04:54:14;;;;;;;16.05;12.57;;;-2.40;37.30;;;;;;5052379;28;20520;-71
2021/03/09 04:56:39;;;;;;;16.27;12.18;;;-2.40;37.30;;;;;;5052691;28;20188;-72
2021/03/09 04:59:05;;;;;;;17.37;11.93;;;-2.30;37.10;;;;;;5051795;28;20254;-71
2021/03/09 05:01:32;;;;;;;17.73;13.07;;;-2.30;37.10;;;;;;5052612;28;20262;-72
2021/03/09 05:03:58;;;;;;;12.02;10.73;;;-2.30;37.00;;;;;;5052458;28;20198;-71
2021/03/09 05:06:23;;;;;;;15.93;12.03;;;-2.30;37.10;;;;;;5052234;28;20583;-72
2021/03/09 05:08:49;;;;;;;12.80;10.97;;;-2.30;37.10;;;;;;5051645;28;20460;-72
2021/03/09 05:11:14;;;;;;;11.37;10.17;;;-2.30;37.10;;;;;;5052635;28;20205;-71
2021/03/09 05:13:40;;;;;;;12.73;11.53;;;-2.20;38.00;;;;;;5052526;28;20206;-71
2021/03/09 05:16:06;;;;;;;13.30;10.30;;;-2.20;37.20;;;;;;5052455;28;20177;-71
2021/03/09 05:18:31;;;;;;;10.80;9.70;;;-2.30;37.10;;;;;;5052182;28;20179;-71
2021/03/09 05:20:57;;;;;;;12.73;10.00;;;-2.30;37.10;;;;;;5050337;28;20948;-73
2021/03/09 05:23:22;;;;;;;15.47;10.57;;;-2.30;37.30;;;;;;5052090;28;20198;-71
2021/03/09 05:25:48;;;;;;;12.90;10.13;;;-2.20;37.60;;;;;;5051997;28;20183;-72
2021/03/09 05:28:14;;;;;;;12.07;10.87;;;-2.30;37.50;;;;;;5049947;28;20214;-72
2021/03/09 05:30:39;;;;;;;14.07;11.67;;;-2.30;37.50;;;;;;5050771;28;20652;-71
2021/03/09 05:33:05;;;;;;;10.53;9.40;;;-2.30;37.60;;;;;;5046656;28;20695;-73
2021/03/09 05:35:31;;;;;;;11.90;10.80;;;-2.20;37.80;;;;;;5031416;28;20175;-71
2021/03/09 05:37:56;;;;;;;13.83;10.03;;;-2.30;37.70;;;;;;5036731;28;20190;-71
2021/03/09 05:40:22;;;;;;;10.80;9.80;;;-2.30;37.80;;;;;;5051036;28;20827;-70
2021/03/09 05:42:50;;;;;;;14.97;11.93;;;-2.20;37.90;;;;;;5051366;28;20654;-70
2021/03/09 05:45:16;;;;;;;12.70;10.10;;;-2.20;37.50;;;;;;5051558;28;20204;-73
2021/03/09 05:47:42;;;;;;;13.60;10.98;;;-2.20;37.40;;;;;;5051214;28;20205;-71
2021/03/09 05:50:08;;;;;;;9.90;9.00;;;;;;;;;;5050660;28;20179;-71
2021/03/09 05:52:36;;;;;;;12.75;11.45;;;;;;;;;;5051110;28;20174;-70
2021/03/09 05:55:02;;;;;;;12.65;10.60;;;;;;;;;;5050673;28;20268;-74
2021/03/09 05:57:30;;;;;;;12.43;10.63;;;;;;;;;;5049873;28;20274;-72
2021/03/09 05:59:56;;;;;;;12.70;10.77;;;;;;;;;;5050303;28;20176;-71
2021/03/09 06:02:23;;;;;;;10.77;9.77;;;;;;;;;;5049865;28;20177;-70
2021/03/09 06:04:49;;;;;;;21.45;11.43;;;;;;;;;;5051102;28;20248;-71
2021/03/09 06:07:18;;;;;;;14.27;10.55;;;;;;;;;;5050630;28;20199;-71
2021/03/09 06:09:44;;;;;;;13.95;10.20;;;-2.00;36.80;;;;;;5050383;28;20167;-71
2021/03/09 06:12:27;;;;;;;16.67;12.23;;;-2.00;37.40;;;;;;5051121;28;20185;-71
2021/03/09 06:14:55;;;;;;;12.10;10.90;;;-2.00;38.00;;;;;;5050732;28;20181;-72
2021/03/09 06:17:30;;;;;;;12.02;10.55;;;-1.90;37.70;;;;;;5057606;28;20186;-72
2021/03/09 06:19:56;;;;;;;10.93;9.93;;;-1.80;38.00;;;;;;5062396;28;20184;-72
2021/03/09 06:22:39;;;;;;;13.65;11.20;;;-1.70;37.60;;;;;;5054415;28;20187;-71
2021/03/09 06:25:07;;;;;;;11.80;10.60;;;-1.50;37.50;;;;;;5044270;28;20188;-71
2021/03/09 06:27:33;;;;;;;10.02;9.05;;;-1.50;37.20;;;;;;5034033;28;20203;-72
2021/03/09 06:29:59;;;;;;;17.13;9.50;;;-1.30;36.60;;;;;;5030851;28;20565;-72
2021/03/09 06:32:26;;;;;;;11.60;10.50;;;-1.20;36.50;;;;;;5031139;28;20217;-72
2021/03/09 06:34:54;;;;;;;15.00;11.40;;;-1.00;36.00;;;;;;5033193;28;20183;-71
2021/03/09 06:37:25;;;;;;;10.38;9.45;;;-0.50;33.00;;;;;;5034124;28;20168;-70
2021/03/09 06:40:03;;;;;;;13.30;9.15;;;-0.50;33.50;;;;;;5053233;28;20189;-72
2021/03/09 06:42:37;;;;;;;11.15;9.88;;;-0.40;31.50;;;;;;5055026;28;20170;-73
2021/03/09 06:45:11;;;;;;;14.98;10.30;;;-0.40;31.40;;;;;;5054477;28;20209;-72
2021/03/09 06:47:41;;;;;;;12.98;9.75;;;-0.40;31.80;;;;;;5055955;28;20189;-72
2021/03/09 06:50:29;;;;;;;9.70;8.85;;;-0.30;31.40;;;;;;5055622;28;20174;-73
2021/03/09 06:52:59;;;;;;;10.70;9.10;;;-0.20;30.70;;;;;;5045093;28;20211;-73
2021/03/09 06:55:33;;;;;;;10.30;8.80;;;-0.10;30.60;;;;;;5054159;28;20178;-71
2021/03/09 06:58:12;;;;;;;9.48;8.50;;;0.10;30.70;;;;;;5056034;28;20177;-71
2021/03/09 07:00:41;;;;;;;14.65;10.00;;;0.20;30.10;;;;;;5055301;28;20177;-71
2021/03/09 07:03:33;;;;;;;10.75;9.60;;;0.30;29.40;;;;;;5055856;28;20186;-74
2021/03/09 07:05:59;;;;;;;17.50;11.60;;;0.40;29.30;;;;;;5056083;28;20182;-74
2021/03/09 07:08:25;;;;;;;11.07;9.80;;;0.50;30.00;;;;;;5055045;28;20614;-71
2021/03/09 07:10:52;;;;;;;11.80;10.25;;;0.50;28.70;;;;;;5053375;28;20233;-71
2021/03/09 07:13:23;;;;;;;14.73;10.45;;;0.60;33.70;;;;;;5053323;28;20603;-72
2021/03/09 07:15:51;;;;;;;11.52;10.32;;;0.70;56.10;;;;;;5051737;28;20186;-72
2021/03/09 07:18:20;;;;;;;14.13;12.63;;;0.70;52.00;;;;;;5052456;28;20182;-71
2021/03/09 07:20:51;;;;;;;11.82;10.73;;;0.80;50.80;;;;;;5051066;28;20186;-71
2021/03/09 07:23:21;;;;;;;14.55;11.23;;;0.80;28.70;;;;;;5050985;28;20207;-76
2021/03/09 07:25:53;;;;;;;12.02;10.98;;;1.00;28.50;;;;;;5051854;28;20180;-72
2021/03/09 07:28:21;;;;;;;13.27;10.60;;;1.10;28.30;;;;;;5052512;28;20334;-71
2021/03/09 07:30:51;;;;;;;13.75;11.20;;;1.20;27.50;;;;;;5051888;28;20184;-73
2021/03/09 07:33:18;;;;;;;13.95;11.57;;;1.30;27.40;;;;;;5051833;28;20240;-71
2021/03/09 07:35:45;;;;;;;15.38;11.20;;;1.40;27.20;;;;;;5050612;28;20204;-73
2021/03/09 07:38:12;;;;;;;14.32;12.93;;;1.50;26.90;;;;;;5036900;28;20600;-72
2021/03/09 07:40:37;;;;;;;13.52;12.30;;;1.70;27.20;;;;;;5027394;28;20195;-73
2021/03/09 07:43:04;;;;;;;15.13;11.80;;;1.80;26.30;;;;;;5047780;28;20259;-73
2021/03/09 07:45:31;;;;;;;12.27;10.95;;;1.80;26.30;;;;;;5049497;28;20185;-73
2021/03/09 07:48:11;;;;;;;18.23;12.80;;;1.80;26.40;;;;;;5035700;28;20679;-72
2021/03/09 07:50:40;;;;;;;14.27;12.85;;;1.90;26.40;;;;;;5050204;28;20264;-72
2021/03/09 07:53:06;;;;;;;15.10;13.57;;;2.00;26.40;;;;;;5054750;28;20239;-72
2021/03/09 07:55:33;;;;;;;14.68;13.23;;;2.20;26.60;;;;;;5059032;28;20178;-71
2021/03/09 07:58:16;;;;;;;15.35;13.82;;;2.40;28.80;;;;;;5063294;28;20184;-71
2021/03/09 08:00:58;;;;;;;15.82;13.32;;;2.50;27.50;;;;;;5064161;28;20185;-72
2021/03/09 08:03:44;;;;;;;20.52;14.25;;;2.70;26.90;;;;;;5059529;28;20289;-72
2021/03/09 08:06:11;;;;;;;18.75;13.32;;;3.00;46.60;;;;;;5057895;28;20181;-72
2021/03/09 08:08:41;;;;;;;16.90;15.35;;;3.10;45.50;;;;;;5055651;28;20203;-72
2021/03/09 08:11:28;;;;;;;16.95;14.50;;;3.20;43.90;;;;;;5043511;28;21009;-71
2021/03/09 08:14:02;;;;;;;15.68;14.30;;;3.40;43.40;;;;;;5034938;28;20599;-70
2021/03/09 08:16:42;;;;;;;19.15;17.23;;;3.60;44.10;;;;;;5053323;28;20174;-71
2021/03/09 08:19:11;;;;;;;20.08;14.80;;;3.70;43.50;;;;;;5056176;28;20190;-72
2021/03/09 08:21:46;;;;;;;19.00;14.68;;;3.80;27.30;;;;;;5057018;28;20602;-73
2021/03/09 08:24:12;;;;;;;16.98;15.57;;;3.80;56.80;;;;;;5057079;28;20201;-72
2021/03/09 08:26:37;;;;;;;15.67;14.17;;;3.80;52.00;;;;;;5055668;28;21875;-73
2021/03/09 08:29:28;;;;;;;16.70;15.27;;;3.80;52.00;;;;;;5055781;28;20575;-74
2021/03/09 08:32:29;;;;;;;19.70;17.02;;;3.60;56.40;;;;;;5057624;28;20194;-71
2021/03/09 08:35:13;;;;;;;16.85;15.40;;;;;;;;;;5057247;28;20162;-73
2021/03/09 08:37:48;;;;;;;17.80;16.25;;;;;;;;;;5055956;28;20179;-69
2021/03/09 08:40:16;;;;;;;17.42;15.65;;;3.90;61.20;;;;;;5053875;28;20320;-74
2021/03/09 08:43:00;;;;;;;17.80;16.00;;;3.80;21.40;;;;;;5053941;28;20174;-72
2021/03/09 08:45:54;;;;;;;17.13;15.73;;;3.90;21.10;;;;;;5053363;28;20208;-72
2021/03/09 08:48:43;;;;;;;17.95;16.20;;;3.90;21.30;;;;;;5053184;28;20215;-71
2021/03/09 08:51:09;;;;;;;18.42;16.52;;;3.80;21.30;;;;;;5052912;28;20565;-71
2021/03/09 08:53:35;;;;;;;18.57;16.90;;;3.90;21.60;;;;;;5052894;28;20237;-72
2021/03/09 08:56:07;;;;;;;18.80;17.05;;;4.00;21.40;;;;;;5053412;28;20177;-72
2021/03/09 08:58:39;;;;;;;19.55;16.95;;;4.10;21.90;;;;;;5052769;28;20671;-72
2021/03/09 09:01:06;;;;;;;16.40;14.52;;;4.20;21.10;;;;;;5051266;28;20186;-71
2021/03/09 09:03:36;;;;;;;16.92;15.73;;;4.40;21.10;;;;;;5052312;28;20283;-72
2021/03/09 09:06:03;;;;;;;16.55;14.88;;;4.60;19.90;;;;;;5052082;28;20186;-70
2021/03/09 09:08:29;;;;;;;16.33;14.70;;;4.70;20.20;;;;;;5052178;28;20537;-71
2021/03/09 09:10:56;;;;;;;16.02;14.73;;;;;;;;;;5053967;28;20171;-71
2021/03/09 09:13:34;;;;;;;16.13;14.70;;;4.90;55.60;;;;;;5054337;28;20253;-71
2021/03/09 09:16:02;;;;;;;16.63;15.00;;;4.90;19.50;;;;;;5043486;28;20551;-72
2021/03/09 09:18:28;;;;;;;18.08;15.90;;;;;;;;;;5034318;28;20202;-72
2021/03/09 09:20:54;;;;;;;16.10;14.60;;;5.20;42.00;;;;;;5051034;28;20183;-72
2021/03/09 09:23:22;;;;;;;16.83;15.37;;;5.20;42.50;;;;;;5053124;28;20218;-72
2021/03/09 09:25:50;;;;;;;17.08;15.68;;;5.20;19.80;;;;;;5052736;28;20420;-72
2021/03/09 09:28:28;;;;;;;14.57;13.38;;;5.40;45.20;;;;;;5053357;28;20254;-72
2021/03/09 09:30:55;;;;;;;17.38;15.82;;;5.50;41.20;;;;;;5052432;28;20183;-73
2021/03/09 09:33:21;;;;;;;21.85;17.13;;;5.40;34.70;;;;;;5055972;28;20203;-72
2021/03/09 09:35:48;;;;;;;16.75;15.23;;;5.60;33.30;;;;;;5055828;28;20178;-72
2021/03/09 09:38:16;;;;;;;20.30;15.77;;;5.80;31.50;;;;;;5055449;28;20648;-72
2021/03/09 09:40:46;;;;;;;17.17;15.68;;;;;;;;;;5055790;28;20243;-73
2021/03/09 09:43:17;;;;;;;16.88;15.68;;;5.90;53.30;;;;;;5053123;28;20219;-72
2021/03/09 09:45:44;;;;;;;16.17;14.70;;;6.20;21.70;;;;;;5051063;28;20642;-70
2021/03/09 09:48:21;;;;;;;17.73;16.40;;;6.40;17.40;;;;;;5050864;28;20455;-71
2021/03/09 09:50:52;;;;;;;16.77;15.20;;;6.50;17.20;;;;;;5051791;28;20434;-72
2021/03/09 09:53:35;;;;;;;18.50;17.10;;;6.60;17.00;;;;;;5054577;28;20202;-72
2021/03/09 09:56:03;;;;;;;16.07;14.63;;;6.80;17.10;;;;;;5053390;28;20420;-71
2021/03/09 09:58:48;;;;;;;18.23;16.40;;;6.90;16.50;;;;;;5050932;28;20511;-70
2021/03/09 10:01:14;;;;;;;16.67;15.10;;;6.90;17.10;;;;;;5052142;28;20491;-70
2021/03/09 10:03:50;;;;;;;17.67;16.07;;;7.10;16.40;;;;;;5050284;28;20514;-71
2021/03/09 10:06:16;;;;;;;19.40;17.60;;;7.30;16.20;;;;;;5051313;28;20435;-70
2021/03/09 10:08:43;;;;;;;15.43;14.07;;;7.40;15.60;;;;;;5051164;28;20554;-71
2021/03/09 10:11:10;;;;;;;17.33;16.03;;;7.40;15.10;;;;;;5051782;28;20455;-71
2021/03/09 10:13:36;;;;;;;17.97;16.13;;;7.40;15.00;;;;;;5050122;28;20530;-71
2021/03/09 10:16:02;;;;;;;16.73;15.20;;;7.50;15.20;;;;;;5076078;23;21130;-73
2021/03/09 10:18:30;;;;;;;18.07;16.47;;;7.60;15.30;;;;;;5073667;28;20492;-73
2021/03/09 10:21:14;;;;;;;16.90;15.80;;;7.60;15.30;;;;;;5072180;28;20201;-74
2021/03/09 10:23:57;;;;;;;16.47;15.27;;;7.70;15.30;;;;;;5070596;28;20956;-74
2021/03/09 10:26:39;;;;;;;18.83;16.83;;;7.80;15.00;;;;;;5061623;28;20444;-73
2021/03/09 10:29:12;;;;;;;16.60;15.23;;;8.00;14.40;;;;;;5052422;28;21008;-74
2021/03/09 10:31:50;;;;;;;15.80;14.60;;;8.00;14.30;;;;;;5051638;28;20436;-74
2021/03/09 10:34:18;;;;;;;17.80;16.40;;;8.00;14.10;;;;;;5052636;28;20433;-74
2021/03/09 10:36:59;;;;;;;16.77;15.07;;;8.00;14.30;;;;;;5052541;28;20448;-74
2021/03/09 10:39:25;;;;;;;15.73;14.30;;;8.10;14.40;;;;;;5053417;28;20415;-74
2021/03/09 10:41:51;;;;;;;17.73;16.43;;;8.20;13.80;;;;;;5053498;28;20416;-73
2021/03/09 10:44:36;;;;;;;20.17;13.97;;;8.10;13.60;;;;;;5052946;28;20210;-74
2021/03/09 10:47:06;;;;;;;15.90;14.30;;;8.20;14.20;;;;;;5051522;28;20268;-74
2021/03/09 10:49:33;;;;;;;15.70;14.60;;;8.30;13.80;;;;;;5051194;28;20528;-69
2021/03/09 10:52:04;;;;;;;15.80;14.37;;;8.40;13.80;;;;;;5052927;28;20444;-74
2021/03/09 10:54:30;;;;;;;16.30;14.60;;;8.50;13.60;;;;;;5053585;28;20716;-74
2021/03/09 10:56:57;;;;;;;15.50;14.37;;;8.60;13.50;;;;;;5052236;28;20433;-73
2021/03/09 10:59:23;;;;;;;19.30;17.63;;;8.70;13.40;;;;;;5052529;28;20429;-73
2021/03/09 11:01:49;;;;;;;14.93;13.77;;;8.80;14.00;;;;;;5054722;28;20432;-72
2021/03/09 11:04:15;;;;;;;14.37;13.47;;;8.70;14.30;;;;;;5055343;28;21041;-74
2021/03/09 11:06:40;;;;;;;16.50;15.33;;;8.40;13.70;;;;;;5048834;28;20480;-70
2021/03/09 11:09:06;;;;;;;15.03;13.83;;;8.20;13.60;;;;;;5034581;28;20270;-72
2021/03/09 11:11:32;;;;;;;17.93;16.37;;;8.20;13.60;;;;;;5031770;28;20214;-72
2021/03/09 11:13:58;;;;;;;15.13;14.13;;;8.20;14.00;;;;;;5051133;28;20821;-74
2021/03/09 11:16:24;;;;;;;16.10;15.00;;;8.30;13.70;;;;;;5048669;28;20469;-74
2021/03/09 11:18:49;;;;;;;15.63;14.60;;;8.40;13.80;;;;;;5033962;28;20187;-73
2021/03/09 11:21:15;;;;;;;16.40;15.20;;;8.50;13.60;;;;;;5049653;28;20281;-74
2021/03/09 11:23:41;;;;;;;16.53;15.50;;;8.50;13.50;;;;;;5052918;28;20190;-73
2021/03/09 11:26:06;;;;;;;17.10;15.70;;;8.50;12.90;;;;;;5051865;28;20217;-73
2021/03/09 11:28:33;;;;;;;15.10;13.80;;;8.60;12.50;;;;;;5058066;28;20518;-74
2021/03/09 11:31:00;;;;;;;14.20;13.23;;;8.80;12.40;;;;;;5055372;28;20448;-73
2021/03/09 11:33:25;;;;;;;17.07;15.63;;;8.90;12.10;;;;;;5058773;28;20448;-73
2021/03/09 11:35:51;;;;;;;14.27;13.17;;;9.10;11.90;;;;;;5057074;28;20448;-73
2021/03/09 11:38:16;;;;;;;14.90;13.90;;;9.30;11.10;;;;;;5055330;28;20183;-74
2021/03/09 11:40:42;;;;;;;13.87;12.90;;;9.50;10.70;;;;;;5056339;28;20175;-71
2021/03/09 11:43:08;;;;;;;15.60;14.53;;;9.50;10.20;;;;;;5057517;28;20713;-72
2021/03/09 11:45:33;;;;;;;15.63;14.63;;;9.30;11.20;;;;;;5058989;28;20254;-72
2021/03/09 11:47:59;;;;;;;15.67;14.70;;;9.40;10.60;;;;;;5053461;28;20755;-72
2021/03/09 11:50:24;;;;;;;14.63;13.73;;;9.60;10.50;;;;;;5052496;28;20192;-72
2021/03/09 11:52:50;;;;;;;16.30;15.20;;;9.70;10.20;;;;;;5053302;28;20632;-72
2021/03/09 11:55:15;;;;;;;15.53;14.63;;;9.80;10.70;;;;;;5053041;28;20641;-72
2021/03/09 11:57:41;;;;;;;17.27;16.10;;;9.90;10.40;;;;;;5053249;28;20663;-72
2021/03/09 12:00:07;;;;;;;17.83;16.60;;;9.80;10.30;;;;;;5051798;28;20182;-71
2021/03/09 12:02:33;;;;;;;15.13;14.13;;;9.70;10.20;;;;;;5048452;28;20218;-72
2021/03/09 12:04:59;;;;;;;17.40;16.40;;;9.70;10.30;;;;;;5052990;28;20458;-72
2021/03/09 12:07:24;;;;;;;18.20;16.50;;;9.70;10.60;;;;;;5053323;28;20664;-73
2021/03/09 12:09:50;;;;;;;15.50;14.40;;;9.50;10.10;;;;;;5052765;28;20215;-72
2021/03/09 12:12:16;;;;;;;16.93;15.70;;;9.40;12.20;;;;;;5053806;28;20178;-72
2021/03/09 12:14:41;;;;;;;15.97;14.83;;;9.40;13.40;;;;;;5065871;28;20254;-71
2021/03/09 12:17:07;;;;;;;18.50;17.07;;;9.50;13.60;;;;;;5066406;28;20219;-72
2021/03/09 12:19:33;;;;;;;14.43;13.53;;;9.60;14.10;;;;;;5053897;28;20542;-71
2021/03/09 12:21:58;;;;;;;17.57;16.33;;;9.70;15.50;;;;;;5054619;28;20175;-73
2021/03/09 12:24:24;;;;;;;17.43;16.33;;;9.70;17.60;;;;;;5056950;28;20218;-71
2021/03/09 12:26:49;;;;;;;18.10;16.37;;;9.70;18.00;;;;;;5057392;28;20207;-75
2021/03/09 12:29:15;;;;;;;17.30;16.13;;;9.50;16.60;;;;;;5056632;28;20294;-74
2021/03/09 12:31:40;;;;;;;16.40;15.30;;;9.70;17.80;;;;;;5056681;28;20596;-73
2021/03/09 12:34:07;;;;;;;17.07;15.97;;;9.80;17.40;;;;;;5056771;28;20171;-72
2021/03/09 12:36:33;;;;;;;17.70;16.57;;;9.80;21.10;;;;;;5056578;28;20617;-72
2021/03/09 12:38:58;;;;;;;18.70;17.20;;;9.80;8.20;;;;;;5042804;28;20513;-73
2021/03/09 12:41:24;;;;;;;17.13;15.73;;;9.80;7.10;;;;;;5045501;28;20284;-72
2021/03/09 12:43:50;;;;;;;16.33;15.37;;;10.00;4.80;;;;;;5053125;28;20187;-74
2021/03/09 12:46:15;;;;;;;16.03;14.83;;;10.20;5.30;;;;;;5053748;28;20738;-73